sensor_id;sensor_type;location;lat;lon;timestamp;pressure;altitude;pressure_sealevel;temperature;humidity
41654;BME280;68687;52.030;7.110;2023-04-20T00:01:57;101456.28;;;6.15;43.85
41654;BME280;68687;52.030;7.110;2023-04-20T00:04:27;101457.97;;;6.16;44.24
41654;BME280;68687;52.030;7.110;2023-04-20T00:06:52;101442.94;;;6.06;44.39
41654;BME280;68687;52.030;7.110;2023-04-20T00:09:21;101449.97;;;6.07;44.50
41654;BME280;68687;52.030;7.110;2023-04-20T00:11:47;101436.91;;;6.04;44.76
41654;BME280;68687;52.030;7.110;2023-04-20T00:14:13;101429.63;;;6.06;44.73
41654;BME280;68687;52.030;7.110;2023-04-20T00:16:38;101429.41;;;5.98;45.01
41654;BME280;68687;52.030;7.110;2023-04-20T00:19:06;101434.03;;;5.96;44.80
41654;BME280;68687;52.030;7.110;2023-04-20T00:21:33;101423.03;;;5.89;45.27
41654;BME280;68687;52.030;7.110;2023-04-20T00:23:58;101425.59;;;5.91;45.57
41654;BME280;68687;52.030;7.110;2023-04-20T00:26:24;101418.97;;;5.85;45.64
41654;BME280;68687;52.030;7.110;2023-04-20T00:28:55;101415.72;;;5.81;45.76
41654;BME280;68687;52.030;7.110;2023-04-20T00:31:21;101419.50;;;5.79;46.50
41654;BME280;68687;52.030;7.110;2023-04-20T00:33:49;101410.13;;;5.84;46.14
41654;BME280;68687;52.030;7.110;2023-04-20T00:36:14;101405.22;;;5.80;46.25
41654;BME280;68687;52.030;7.110;2023-04-20T00:38:40;101401.69;;;5.79;46.64
41654;BME280;68687;52.030;7.110;2023-04-20T00:41:05;101407.53;;;5.73;46.60
41654;BME280;68687;52.030;7.110;2023-04-20T00:43:30;101395.66;;;5.77;46.59
41654;BME280;68687;52.030;7.110;2023-04-20T00:45:56;101397.84;;;5.72;47.31
41654;BME280;68687;52.030;7.110;2023-04-20T00:48:21;101390.97;;;5.70;47.73
41654;BME280;68687;52.030;7.110;2023-04-20T00:50:50;101388.50;;;5.78;47.51
41654;BME280;68687;52.030;7.110;2023-04-20T00:53:22;101376.31;;;5.75;47.90
41654;BME280;68687;52.030;7.110;2023-04-20T00:55:49;101373.88;;;5.72;48.61
41654;BME280;68687;52.030;7.110;2023-04-20T00:58:14;101374.28;;;5.68;49.01
41654;BME280;68687;52.030;7.110;2023-04-20T01:00:40;101358.31;;;5.68;49.23
41654;BME280;68687;52.030;7.110;2023-04-20T01:03:08;101354.38;;;5.72;49.09
41654;BME280;68687;52.030;7.110;2023-04-20T01:05:33;101350.31;;;5.68;49.85
41654;BME280;68687;52.030;7.110;2023-04-20T01:07:59;101339.13;;;5.74;49.93
41654;BME280;68687;52.030;7.110;2023-04-20T01:10:24;101337.63;;;5.81;49.75
41654;BME280;68687;52.030;7.110;2023-04-20T01:12:57;101331.88;;;5.85;50.24
41654;BME280;68687;52.030;7.110;2023-04-20T01:15:22;101330.19;;;5.84;50.37
41654;BME280;68687;52.030;7.110;2023-04-20T01:17:47;101323.22;;;5.93;50.02
41654;BME280;68687;52.030;7.110;2023-04-20T01:20:13;101325.75;;;5.95;50.08
41654;BME280;68687;52.030;7.110;2023-04-20T01:22:46;101331.13;;;6.04;50.03
41654;BME280;68687;52.030;7.110;2023-04-20T01:25:16;101323.28;;;6.03;50.18
41654;BME280;68687;52.030;7.110;2023-04-20T01:27:41;101314.00;;;6.07;50.40
41654;BME280;68687;52.030;7.110;2023-04-20T01:30:10;101314.84;;;6.07;50.74
41654;BME280;68687;52.030;7.110;2023-04-20T01:32:39;101327.50;;;6.15;50.54
41654;BME280;68687;52.030;7.110;2023-04-20T01:35:08;101312.47;;;6.14;50.51
41654;BME280;68687;52.030;7.110;2023-04-20T01:37:34;101301.25;;;6.10;50.86
41654;BME280;68687;52.030;7.110;2023-04-20T01:39:59;101296.34;;;6.15;51.12
41654;BME280;68687;52.030;7.110;2023-04-20T01:42:24;101290.59;;;6.20;50.99
41654;BME280;68687;52.030;7.110;2023-04-20T01:44:53;101280.91;;;6.19;51.00
41654;BME280;68687;52.030;7.110;2023-04-20T01:47:21;101292.13;;;6.23;51.52
41654;BME280;68687;52.030;7.110;2023-04-20T01:49:50;101286.38;;;6.27;51.42
41654;BME280;68687;52.030;7.110;2023-04-20T01:52:18;101289.03;;;6.27;51.04
41654;BME280;68687;52.030;7.110;2023-04-20T01:54:46;101280.91;;;6.29;51.46
41654;BME280;68687;52.030;7.110;2023-04-20T01:57:27;101273.50;;;6.32;51.69
41654;BME280;68687;52.030;7.110;2023-04-20T01:59:52;101261.25;;;6.30;51.19
41654;BME280;68687;52.030;7.110;2023-04-20T02:02:17;101266.34;;;6.33;51.38
41654;BME280;68687;52.030;7.110;2023-04-20T02:04:43;101276.03;;;6.34;52.11
41654;BME280;68687;52.030;7.110;2023-04-20T02:07:08;101277.16;;;6.31;51.83
41654;BME280;68687;52.030;7.110;2023-04-20T02:09:33;101267.19;;;6.33;52.23
41654;BME280;68687;52.030;7.110;2023-04-20T02:11:58;101268.00;;;6.34;51.99
41654;BME280;68687;52.030;7.110;2023-04-20T02:14:24;101266.19;;;6.34;52.32
41654;BME280;68687;52.030;7.110;2023-04-20T02:16:49;101263.25;;;6.37;52.21
41654;BME280;68687;52.030;7.110;2023-04-20T02:19:14;101263.25;;;6.37;52.07
41654;BME280;68687;52.030;7.110;2023-04-20T02:21:40;101260.31;;;6.31;52.71
41654;BME280;68687;52.030;7.110;2023-04-20T02:24:06;101262.13;;;6.40;53.02
41654;BME280;68687;52.030;7.110;2023-04-20T02:26:31;101255.53;;;6.34;53.42
41654;BME280;68687;52.030;7.110;2023-04-20T02:28:56;101262.97;;;6.31;53.73
41654;BME280;68687;52.030;7.110;2023-04-20T02:31:21;101244.84;;;6.34;53.96
41654;BME280;68687;52.030;7.110;2023-04-20T02:33:50;101235.47;;;6.30;54.68
41654;BME280;68687;52.030;7.110;2023-04-20T02:36:15;101236.88;;;6.34;55.20
41654;BME280;68687;52.030;7.110;2023-04-20T02:38:40;101238.53;;;6.35;55.06
41654;BME280;68687;52.030;7.110;2023-04-20T02:41:12;101230.13;;;6.30;55.44
41654;BME280;68687;52.030;7.110;2023-04-20T02:43:40;101236.56;;;6.37;55.12
41654;BME280;68687;52.030;7.110;2023-04-20T02:46:05;101235.72;;;6.37;55.92
41654;BME280;68687;52.030;7.110;2023-04-20T02:48:31;101235.88;;;6.35;55.61
41654;BME280;68687;52.030;7.110;2023-04-20T02:50:56;101241.06;;;6.37;56.01
41654;BME280;68687;52.030;7.110;2023-04-20T02:53:22;101246.97;;;6.40;56.13
41654;BME280;68687;52.030;7.110;2023-04-20T02:55:47;101244.28;;;6.40;56.24
41654;BME280;68687;52.030;7.110;2023-04-20T02:58:12;101247.50;;;6.44;56.73
41654;BME280;68687;52.030;7.110;2023-04-20T03:00:38;101254.53;;;6.45;57.72
41654;BME280;68687;52.030;7.110;2023-04-20T03:03:03;101245.41;;;6.47;57.48
41654;BME280;68687;52.030;7.110;2023-04-20T03:05:28;101242.72;;;6.47;57.82
41654;BME280;68687;52.030;7.110;2023-04-20T03:07:55;101232.06;;;6.47;58.02
41654;BME280;68687;52.030;7.110;2023-04-20T03:10:20;101238.78;;;6.51;58.54
41654;BME280;68687;52.030;7.110;2023-04-20T03:12:46;101244.13;;;6.51;58.80
41654;BME280;68687;52.030;7.110;2023-04-20T03:15:11;101236.81;;;6.54;59.21
41654;BME280;68687;52.030;7.110;2023-04-20T03:17:36;101242.72;;;6.47;59.97
41654;BME280;68687;52.030;7.110;2023-04-20T03:20:01;101242.72;;;6.47;59.97
41654;BME280;68687;52.030;7.110;2023-04-20T03:22:28;101234.59;;;6.39;61.05
41654;BME280;68687;52.030;7.110;2023-04-20T03:24:57;101231.25;;;6.37;61.35
41654;BME280;68687;52.030;7.110;2023-04-20T03:27:22;101227.03;;;6.35;61.50
41654;BME280;68687;52.030;7.110;2023-04-20T03:29:47;101225.91;;;6.37;61.64
41654;BME280;68687;52.030;7.110;2023-04-20T03:32:13;101217.22;;;6.35;61.87
41654;BME280;68687;52.030;7.110;2023-04-20T03:34:38;101217.22;;;6.35;62.30
41654;BME280;68687;52.030;7.110;2023-04-20T03:37:03;101220.31;;;6.31;62.49
41654;BME280;68687;52.030;7.110;2023-04-20T03:39:29;101215.53;;;6.34;62.37
41654;BME280;68687;52.030;7.110;2023-04-20T03:41:55;101213.84;;;6.33;62.93
41654;BME280;68687;52.030;7.110;2023-04-20T03:44:21;101213.25;;;6.30;62.95
41654;BME280;68687;52.030;7.110;2023-04-20T03:46:46;101213.16;;;6.31;63.18
41654;BME280;68687;52.030;7.110;2023-04-20T03:49:12;101199.53;;;6.25;62.91
41654;BME280;68687;52.030;7.110;2023-04-20T03:51:37;101205.41;;;6.28;63.42
41654;BME280;68687;52.030;7.110;2023-04-20T03:54:02;101186.63;;;6.20;63.70
41654;BME280;68687;52.030;7.110;2023-04-20T03:56:34;101194.03;;;6.26;63.75
41654;BME280;68687;52.030;7.110;2023-04-20T03:58:59;101189.97;;;6.22;64.01
41654;BME280;68687;52.030;7.110;2023-04-20T04:01:27;101185.75;;;6.29;63.62
41654;BME280;68687;52.030;7.110;2023-04-20T04:03:53;101193.19;;;6.26;64.12
41654;BME280;68687;52.030;7.110;2023-04-20T04:06:18;101182.69;;;6.24;63.88
41654;BME280;68687;52.030;7.110;2023-04-20T04:08:43;101188.84;;;6.25;63.78
41654;BME280;68687;52.030;7.110;2023-04-20T04:11:08;101192.66;;;6.32;64.23
41654;BME280;68687;52.030;7.110;2023-04-20T04:13:34;101188.88;;;6.34;63.81
41654;BME280;68687;52.030;7.110;2023-04-20T04:16:02;101198.13;;;6.30;64.14
41654;BME280;68687;52.030;7.110;2023-04-20T04:18:29;101196.03;;;6.34;64.06
41654;BME280;68687;52.030;7.110;2023-04-20T04:20:57;101185.78;;;6.19;64.32
41654;BME280;68687;52.030;7.110;2023-04-20T04:23:22;101179.59;;;6.29;64.12
41654;BME280;68687;52.030;7.110;2023-04-20T04:25:51;101197.28;;;6.20;64.88
41654;BME280;68687;52.030;7.110;2023-04-20T04:28:16;101199.66;;;6.23;64.58
41654;BME280;68687;52.030;7.110;2023-04-20T04:30:41;101202.19;;;6.25;64.98
41654;BME280;68687;52.030;7.110;2023-04-20T04:33:10;101195.47;;;6.30;64.45
41654;BME280;68687;52.030;7.110;2023-04-20T04:35:38;101183.53;;;6.15;64.73
41654;BME280;68687;52.030;7.110;2023-04-20T04:38:05;101195.88;;;6.26;64.87
41654;BME280;68687;52.030;7.110;2023-04-20T04:40:30;101174.28;;;6.19;65.21
41654;BME280;68687;52.030;7.110;2023-04-20T04:43:00;101185.63;;;6.21;64.92
41654;BME280;68687;52.030;7.110;2023-04-20T04:45:29;101187.59;;;6.19;65.49
41654;BME280;68687;52.030;7.110;2023-04-20T04:47:58;101187.75;;;6.17;65.91
41654;BME280;68687;52.030;7.110;2023-04-20T04:50:23;101187.88;;;6.16;65.78
41654;BME280;68687;52.030;7.110;2023-04-20T04:52:49;101186.34;;;6.13;66.12
41654;BME280;68687;52.030;7.110;2023-04-20T04:55:14;101187.06;;;6.06;66.52
41654;BME280;68687;52.030;7.110;2023-04-20T04:57:39;101184.69;;;6.03;66.75
41654;BME280;68687;52.030;7.110;2023-04-20T05:00:05;101190.97;;;6.02;66.92
41654;BME280;68687;52.030;7.110;2023-04-20T05:02:33;101199.69;;;6.04;67.28
41654;BME280;68687;52.030;7.110;2023-04-20T05:04:59;101185.91;;;5.99;67.25
41654;BME280;68687;52.030;7.110;2023-04-20T05:07:25;101190.25;;;6.00;67.61
41654;BME280;68687;52.030;7.110;2023-04-20T05:09:50;101198.25;;;6.00;67.44
41654;BME280;68687;52.030;7.110;2023-04-20T05:12:15;101186.91;;;5.98;67.91
41654;BME280;68687;52.030;7.110;2023-04-20T05:14:41;101192.94;;;6.00;67.56
41654;BME280;68687;52.030;7.110;2023-04-20T05:17:06;101188.72;;;5.97;67.76
41654;BME280;68687;52.030;7.110;2023-04-20T05:19:31;101178.63;;;5.91;67.90
41654;BME280;68687;52.030;7.110;2023-04-20T05:22:03;101192.78;;;6.01;67.96
41654;BME280;68687;52.030;7.110;2023-04-20T05:24:28;101193.88;;;5.89;68.35
41654;BME280;68687;52.030;7.110;2023-04-20T05:26:56;101192.09;;;5.89;68.56
41654;BME280;68687;52.030;7.110;2023-04-20T05:29:22;101202.47;;;5.93;68.63
41654;BME280;68687;52.030;7.110;2023-04-20T05:31:53;101203.97;;;5.85;69.03
41654;BME280;68687;52.030;7.110;2023-04-20T05:34:27;101210.47;;;5.93;68.81
41654;BME280;68687;52.030;7.110;2023-04-20T05:36:59;101208.63;;;5.83;69.03
41654;BME280;68687;52.030;7.110;2023-04-20T05:39:24;101206.97;;;5.92;68.96
41654;BME280;68687;52.030;7.110;2023-04-20T05:41:53;101209.88;;;5.89;69.56
41654;BME280;68687;52.030;7.110;2023-04-20T05:44:18;101208.19;;;5.88;69.62
41654;BME280;68687;52.030;7.110;2023-04-20T05:46:44;101209.31;;;5.85;69.38
41654;BME280;68687;52.030;7.110;2023-04-20T05:49:09;101200.06;;;5.80;70.03
41654;BME280;68687;52.030;7.110;2023-04-20T05:51:40;101207.81;;;5.93;69.59
41654;BME280;68687;52.030;7.110;2023-04-20T05:54:05;101205.13;;;5.93;69.89
41654;BME280;68687;52.030;7.110;2023-04-20T05:56:31;101219.16;;;5.95;70.17
41654;BME280;68687;52.030;7.110;2023-04-20T05:58:57;101199.22;;;5.89;69.91
41654;BME280;68687;52.030;7.110;2023-04-20T06:01:23;101214.09;;;6.01;70.09
41654;BME280;68687;52.030;7.110;2023-04-20T06:03:48;101213.25;;;6.01;70.30
41654;BME280;68687;52.030;7.110;2023-04-20T06:06:14;101213.25;;;6.01;70.11
41654;BME280;68687;52.030;7.110;2023-04-20T06:08:39;101213.69;;;5.96;70.58
41654;BME280;68687;52.030;7.110;2023-04-20T06:11:05;101209.91;;;5.99;70.24
41654;BME280;68687;52.030;7.110;2023-04-20T06:13:30;101205.13;;;5.93;70.56
41654;BME280;68687;52.030;7.110;2023-04-20T06:15:59;101214.13;;;5.92;70.56
41654;BME280;68687;52.030;7.110;2023-04-20T06:18:24;101215.09;;;6.00;70.75
41654;BME280;68687;52.030;7.110;2023-04-20T06:20:49;101213.72;;;6.06;70.49
41654;BME280;68687;52.030;7.110;2023-04-20T06:23:15;101218.34;;;6.04;70.61
41654;BME280;68687;52.030;7.110;2023-04-20T06:25:41;101215.41;;;6.07;70.66
41654;BME280;68687;52.030;7.110;2023-04-20T06:28:06;101214.94;;;6.02;71.11
41654;BME280;68687;52.030;7.110;2023-04-20T06:30:33;101220.28;;;6.02;70.69
41654;BME280;68687;52.030;7.110;2023-04-20T06:32:59;101213.81;;;5.95;71.14
41654;BME280;68687;52.030;7.110;2023-04-20T06:35:27;101216.38;;;6.06;70.85
41654;BME280;68687;52.030;7.110;2023-04-20T06:37:53;101210.34;;;6.04;71.40
41654;BME280;68687;52.030;7.110;2023-04-20T06:40:30;101210.75;;;5.99;71.62
41654;BME280;68687;52.030;7.110;2023-04-20T06:43:02;101211.75;;;6.08;71.69
41654;BME280;68687;52.030;7.110;2023-04-20T06:45:30;101201.09;;;6.08;71.62
41654;BME280;68687;52.030;7.110;2023-04-20T06:47:58;101203.03;;;5.96;71.73
41654;BME280;68687;52.030;7.110;2023-04-20T06:50:24;101213.00;;;5.94;72.25
41654;BME280;68687;52.030;7.110;2023-04-20T06:52:52;101210.75;;;5.89;72.68
41654;BME280;68687;52.030;7.110;2023-04-20T06:55:18;101208.34;;;5.96;72.58
41654;BME280;68687;52.030;7.110;2023-04-20T06:57:43;101202.63;;;5.91;73.07
41654;BME280;68687;52.030;7.110;2023-04-20T07:00:10;101214.13;;;5.92;73.02
41654;BME280;68687;52.030;7.110;2023-04-20T07:02:43;101215.66;;;5.94;73.00
41654;BME280;68687;52.030;7.110;2023-04-20T07:05:09;101207.38;;;5.97;73.18
41654;BME280;68687;52.030;7.110;2023-04-20T07:07:38;101206.25;;;6.00;72.93
41654;BME280;68687;52.030;7.110;2023-04-20T07:10:08;101211.03;;;5.96;73.23
41654;BME280;68687;52.030;7.110;2023-04-20T07:12:35;101204.16;;;5.94;73.59
41654;BME280;68687;52.030;7.110;2023-04-20T07:15:05;101203.16;;;5.95;73.40
41654;BME280;68687;52.030;7.110;2023-04-20T07:17:31;101193.06;;;5.98;73.52
41654;BME280;68687;52.030;7.110;2023-04-20T07:19:56;101207.41;;;6.07;73.62
41654;BME280;68687;52.030;7.110;2023-04-20T07:22:23;101197.84;;;6.14;72.73
41654;BME280;68687;52.030;7.110;2023-04-20T07:24:51;101197.03;;;6.04;73.50
41654;BME280;68687;52.030;7.110;2023-04-20T07:27:16;101193.94;;;6.08;73.79
41654;BME280;68687;52.030;7.110;2023-04-20T07:29:45;101191.69;;;6.13;73.52
41654;BME280;68687;52.030;7.110;2023-04-20T07:32:13;101196.31;;;6.11;73.57
41654;BME280;68687;52.030;7.110;2023-04-20T07:34:39;101195.88;;;6.16;72.96
41654;BME280;68687;52.030;7.110;2023-04-20T07:37:07;101201.50;;;6.13;73.49
41654;BME280;68687;52.030;7.110;2023-04-20T07:39:32;101200.09;;;6.09;73.33
41654;BME280;68687;52.030;7.110;2023-04-20T07:41:57;101188.72;;;6.16;73.72
41654;BME280;68687;52.030;7.110;2023-04-20T07:44:29;101193.19;;;6.26;73.04
41654;BME280;68687;52.030;7.110;2023-04-20T07:46:55;101198.84;;;6.32;73.00
41654;BME280;68687;52.030;7.110;2023-04-20T07:49:21;101195.47;;;6.20;72.73
41654;BME280;68687;52.030;7.110;2023-04-20T07:51:47;101188.56;;;6.28;73.19
41654;BME280;68687;52.030;7.110;2023-04-20T07:54:12;101201.19;;;6.45;72.35
41654;BME280;68687;52.030;7.110;2023-04-20T07:56:37;101202.03;;;6.26;73.33
41654;BME280;68687;52.030;7.110;2023-04-20T07:59:12;101196.16;;;6.32;73.64
41654;BME280;68687;52.030;7.110;2023-04-20T08:01:37;101193.75;;;6.29;72.84
41654;BME280;68687;52.030;7.110;2023-04-20T08:04:02;101191.09;;;6.39;72.63
41654;BME280;68687;52.030;7.110;2023-04-20T08:06:28;101198.38;;;6.46;72.82
41654;BME280;68687;52.030;7.110;2023-04-20T08:08:53;101190.94;;;6.40;72.92
41654;BME280;68687;52.030;7.110;2023-04-20T08:11:18;101190.25;;;6.38;72.46
41654;BME280;68687;52.030;7.110;2023-04-20T08:13:47;101203.13;;;6.53;72.53
41654;BME280;68687;52.030;7.110;2023-04-20T08:16:15;101192.22;;;6.36;73.52
41654;BME280;68687;52.030;7.110;2023-04-20T08:18:40;101185.19;;;6.45;72.51
41654;BME280;68687;52.030;7.110;2023-04-20T08:21:05;101185.19;;;6.45;72.92
41654;BME280;68687;52.030;7.110;2023-04-20T08:23:31;101195.88;;;6.35;72.94
41654;BME280;68687;52.030;7.110;2023-04-20T08:25:56;101196.41;;;6.29;73.50
41654;BME280;68687;52.030;7.110;2023-04-20T08:28:22;101198.84;;;6.32;73.70
41654;BME280;68687;52.030;7.110;2023-04-20T08:30:48;101195.03;;;6.25;73.55
41654;BME280;68687;52.030;7.110;2023-04-20T08:33:17;101185.78;;;6.19;73.37
41654;BME280;68687;52.030;7.110;2023-04-20T08:35:42;101184.91;;;6.29;73.33
41654;BME280;68687;52.030;7.110;2023-04-20T08:38:10;101188.31;;;6.31;73.63
41654;BME280;68687;52.030;7.110;2023-04-20T08:40:39;101181.28;;;6.39;73.82
41654;BME280;68687;52.030;7.110;2023-04-20T08:43:07;101176.75;;;6.49;74.13
41654;BME280;68687;52.030;7.110;2023-04-20T08:45:32;101164.81;;;6.54;73.66
41654;BME280;68687;52.030;7.110;2023-04-20T08:47:58;101184.69;;;6.78;72.25
41654;BME280;68687;52.030;7.110;2023-04-20T08:50:27;101184.03;;;6.67;71.25
41654;BME280;68687;52.030;7.110;2023-04-20T08:52:53;101177.28;;;6.63;71.77
41654;BME280;68687;52.030;7.110;2023-04-20T08:55:18;101183.63;;;6.99;71.03
41654;BME280;68687;52.030;7.110;2023-04-20T08:57:44;101180.31;;;6.87;70.77
41654;BME280;68687;52.030;7.110;2023-04-20T09:00:09;101167.75;;;6.97;69.80
41654;BME280;68687;52.030;7.110;2023-04-20T09:02:36;101170.75;;;6.85;69.56
41654;BME280;68687;52.030;7.110;2023-04-20T09:05:05;101172.31;;;7.15;68.72
41654;BME280;68687;52.030;7.110;2023-04-20T09:07:31;101188.75;;;7.20;68.28
41654;BME280;68687;52.030;7.110;2023-04-20T09:09:59;101177.47;;;7.26;68.07
41654;BME280;68687;52.030;7.110;2023-04-20T09:12:25;101175.97;;;7.41;68.24
41654;BME280;68687;52.030;7.110;2023-04-20T09:14:51;101185.38;;;7.45;68.08
41654;BME280;68687;52.030;7.110;2023-04-20T09:17:30;101168.75;;;7.51;67.09
41654;BME280;68687;52.030;7.110;2023-04-20T09:19:55;101170.72;;;7.49;67.35
41654;BME280;68687;52.030;7.110;2023-04-20T09:22:31;101162.03;;;7.47;67.78
41654;BME280;68687;52.030;7.110;2023-04-20T09:24:56;101157.81;;;7.44;67.51
41654;BME280;68687;52.030;7.110;2023-04-20T09:27:25;101160.59;;;7.70;66.86
41654;BME280;68687;52.030;7.110;2023-04-20T09:29:58;101161.59;;;7.69;66.05
41654;BME280;68687;52.030;7.110;2023-04-20T09:32:25;101148.47;;;8.20;65.33
41654;BME280;68687;52.030;7.110;2023-04-20T09:34:50;101164.22;;;8.41;64.03
41654;BME280;68687;52.030;7.110;2023-04-20T09:37:16;101164.16;;;8.15;63.83
41654;BME280;68687;52.030;7.110;2023-04-20T09:39:43;101155.66;;;8.55;63.99
41654;BME280;68687;52.030;7.110;2023-04-20T09:42:14;101152.66;;;8.58;64.09
41654;BME280;68687;52.030;7.110;2023-04-20T09:44:40;101180.72;;;8.18;63.88
41654;BME280;68687;52.030;7.110;2023-04-20T09:47:06;101157.06;;;8.23;63.77
41654;BME280;68687;52.030;7.110;2023-04-20T09:49:35;101154.00;;;8.18;64.10
41654;BME280;68687;52.030;7.110;2023-04-20T09:52:04;101135.88;;;8.30;63.35
41654;BME280;68687;52.030;7.110;2023-04-20T09:54:30;101142.66;;;8.68;63.46
41654;BME280;68687;52.030;7.110;2023-04-20T09:56:58;101139.16;;;8.67;61.64
41654;BME280;68687;52.030;7.110;2023-04-20T09:59:23;101147.19;;;8.67;61.46
41654;BME280;68687;52.030;7.110;2023-04-20T10:01:53;101129.25;;;8.60;61.29
41654;BME280;68687;52.030;7.110;2023-04-20T10:04:25;101127.13;;;8.72;60.57
41654;BME280;68687;52.030;7.110;2023-04-20T10:06:51;101138.75;;;8.88;60.59
41654;BME280;68687;52.030;7.110;2023-04-20T10:09:23;101134.63;;;9.02;60.53
41654;BME280;68687;52.030;7.110;2023-04-20T10:11:50;101135.88;;;8.82;59.18
41654;BME280;68687;52.030;7.110;2023-04-20T10:14:34;101141.84;;;8.76;59.73
41654;BME280;68687;52.030;7.110;2023-04-20T10:17:07;101130.19;;;8.51;60.26
41654;BME280;68687;52.030;7.110;2023-04-20T10:22:02;101135.56;;;8.51;60.58
41654;BME280;68687;52.030;7.110;2023-04-20T10:24:29;101131.91;;;8.34;61.59
41654;BME280;68687;52.030;7.110;2023-04-20T10:26:54;101139.47;;;8.21;61.83
41654;BME280;68687;52.030;7.110;2023-04-20T10:29:27;101136.41;;;8.16;61.78
41654;BME280;68687;52.030;7.110;2023-04-20T10:31:54;101142.56;;;8.08;62.02
41654;BME280;68687;52.030;7.110;2023-04-20T10:34:30;101141.19;;;8.04;61.88
41654;BME280;68687;52.030;7.110;2023-04-20T10:37:12;101126.16;;;8.29;62.43
41654;BME280;68687;52.030;7.110;2023-04-20T10:39:47;101136.03;;;8.28;62.65
41654;BME280;68687;52.030;7.110;2023-04-20T10:42:18;101133.34;;;8.28;62.03
41654;BME280;68687;52.030;7.110;2023-04-20T10:44:51;101126.72;;;8.58;61.77
41654;BME280;68687;52.030;7.110;2023-04-20T10:47:26;101127.81;;;9.08;61.70
41654;BME280;68687;52.030;7.110;2023-04-20T10:49:51;101134.25;;;8.89;60.89
41654;BME280;68687;52.030;7.110;2023-04-20T10:52:39;101132.63;;;8.70;61.22
41654;BME280;68687;52.030;7.110;2023-04-20T10:55:24;101124.84;;;8.77;61.23
41654;BME280;68687;52.030;7.110;2023-04-20T10:57:50;101134.56;;;8.86;60.82
41654;BME280;68687;52.030;7.110;2023-04-20T11:00:25;101134.38;;;8.79;61.43
41654;BME280;68687;52.030;7.110;2023-04-20T11:02:52;101130.38;;;8.83;61.84
41654;BME280;68687;52.030;7.110;2023-04-20T11:05:19;101119.66;;;8.83;61.11
41654;BME280;68687;52.030;7.110;2023-04-20T11:07:58;101131.69;;;8.79;60.30
41654;BME280;68687;52.030;7.110;2023-04-20T11:10:36;101117.88;;;9.00;60.33
41654;BME280;68687;52.030;7.110;2023-04-20T11:13:02;101121.31;;;9.26;60.30
41654;BME280;68687;52.030;7.110;2023-04-20T11:15:34;101112.44;;;9.18;59.14
41654;BME280;68687;52.030;7.110;2023-04-20T11:18:07;101110.22;;;9.05;58.60
41654;BME280;68687;52.030;7.110;2023-04-20T11:20:36;101100.22;;;9.15;58.92
41654;BME280;68687;52.030;7.110;2023-04-20T11:23:01;101114.00;;;9.45;57.66
41654;BME280;68687;52.030;7.110;2023-04-20T11:25:29;101107.16;;;9.58;58.26
41654;BME280;68687;52.030;7.110;2023-04-20T11:28:04;101096.81;;;9.72;57.62
41654;BME280;68687;52.030;7.110;2023-04-20T11:30:38;101101.16;;;9.73;57.45
41654;BME280;68687;52.030;7.110;2023-04-20T11:33:03;101093.81;;;9.91;56.71
41654;BME280;68687;52.030;7.110;2023-04-20T11:35:35;101090.19;;;10.64;55.37
41654;BME280;68687;52.030;7.110;2023-04-20T11:38:01;101088.25;;;10.33;54.25
41654;BME280;68687;52.030;7.110;2023-04-20T11:40:26;101093.38;;;10.59;52.60
41654;BME280;68687;52.030;7.110;2023-04-20T11:42:51;101088.72;;;10.92;51.80
41654;BME280;68687;52.030;7.110;2023-04-20T11:45:19;101091.78;;;10.42;52.04
41654;BME280;68687;52.030;7.110;2023-04-20T11:47:45;101086.06;;;10.45;53.54
41654;BME280;68687;52.030;7.110;2023-04-20T11:50:14;101094.09;;;10.12;54.16
41654;BME280;68687;52.030;7.110;2023-04-20T11:52:39;101082.88;;;9.76;54.75
41654;BME280;68687;52.030;7.110;2023-04-20T11:55:05;101088.91;;;10.03;54.66
41654;BME280;68687;52.030;7.110;2023-04-20T11:57:30;101095.28;;;10.02;55.21
41654;BME280;68687;52.030;7.110;2023-04-20T11:59:55;101099.50;;;9.88;56.20
41654;BME280;68687;52.030;7.110;2023-04-20T12:02:21;101090.09;;;9.84;55.53
41654;BME280;68687;52.030;7.110;2023-04-20T12:04:49;101084.06;;;9.98;55.26
41654;BME280;68687;52.030;7.110;2023-04-20T12:07:14;101097.47;;;10.06;55.08
41654;BME280;68687;52.030;7.110;2023-04-20T12:09:40;101092.44;;;10.03;54.87
41654;BME280;68687;52.030;7.110;2023-04-20T12:12:06;101106.69;;;9.79;55.69
41654;BME280;68687;52.030;7.110;2023-04-20T12:14:35;101102.16;;;9.72;55.85
41654;BME280;68687;52.030;7.110;2023-04-20T12:17:01;101105.34;;;10.00;56.02
41654;BME280;68687;52.030;7.110;2023-04-20T12:19:28;101092.75;;;10.08;55.28
41654;BME280;68687;52.030;7.110;2023-04-20T12:21:53;101111.38;;;10.50;55.25
41654;BME280;68687;52.030;7.110;2023-04-20T12:24:18;101101.16;;;10.05;54.83
41654;BME280;68687;52.030;7.110;2023-04-20T12:26:43;101094.09;;;10.37;54.70
41654;BME280;68687;52.030;7.110;2023-04-20T12:29:09;101087.56;;;10.31;54.17
41654;BME280;68687;52.030;7.110;2023-04-20T12:31:34;101098.16;;;10.25;54.36
41654;BME280;68687;52.030;7.110;2023-04-20T12:34:06;101091.75;;;10.34;54.00
41654;BME280;68687;52.030;7.110;2023-04-20T12:36:31;101102.66;;;10.32;53.30
41654;BME280;68687;52.030;7.110;2023-04-20T12:38:57;101098.47;;;10.46;53.71
41654;BME280;68687;52.030;7.110;2023-04-20T12:41:22;101105.69;;;10.29;54.96
41654;BME280;68687;52.030;7.110;2023-04-20T12:43:49;101091.75;;;10.09;54.97
41654;BME280;68687;52.030;7.110;2023-04-20T12:46:14;101091.59;;;10.03;55.49
41654;BME280;68687;52.030;7.110;2023-04-20T12:48:43;101090.09;;;10.08;54.24
41654;BME280;68687;52.030;7.110;2023-04-20T12:51:14;101098.13;;;10.33;55.12
41654;BME280;68687;52.030;7.110;2023-04-20T12:53:40;101084.50;;;10.59;53.65
41654;BME280;68687;52.030;7.110;2023-04-20T12:56:11;101084.19;;;10.53;52.78
41654;BME280;68687;52.030;7.110;2023-04-20T12:58:36;101087.63;;;10.78;52.53
41654;BME280;68687;52.030;7.110;2023-04-20T13:01:08;101083.88;;;10.96;51.87
41654;BME280;68687;52.030;7.110;2023-04-20T13:03:33;101074.56;;;10.67;50.98